sensor_id;sensor_type;location;lat;lon;timestamp;P1;durP1;ratioP1;P2;durP2;ratioP2
68126;SDS011;54931;52.098;21.006;2022-07-12T00:02:18;11.00;;;2.90;;
68126;SDS011;54931;52.098;21.006;2022-07-12T00:04:45;5.70;;;2.50;;
68126;SDS011;54931;52.098;21.006;2022-07-12T00:07:13;7.80;;;2.20;;
68126;SDS011;54931;52.098;21.006;2022-07-12T00:09:41;7.40;;;2.40;;
68126;SDS011;54931;52.098;21.006;2022-07-12T00:12:09;3.30;;;2.20;;
68126;SDS011;54931;52.098;21.006;2022-07-12T00:14:37;2.90;;;2.10;;
68126;SDS011;54931;52.098;21.006;2022-07-12T00:17:04;4.20;;;2.40;;
68126;SDS011;54931;52.098;21.006;2022-07-12T00:19:32;6.20;;;2.20;;
68126;SDS011;54931;52.098;21.006;2022-07-12T00:21:59;4.80;;;2.10;;
68126;SDS011;54931;52.098;21.006;2022-07-12T00:24:26;5.10;;;2.10;;
68126;SDS011;54931;52.098;21.006;2022-07-12T00:26:54;5.10;;;2.00;;
68126;SDS011;54931;52.098;21.006;2022-07-12T00:29:21;4.10;;;2.10;;
68126;SDS011;54931;52.098;21.006;2022-07-12T00:31:49;8.90;;;2.60;;
68126;SDS011;54931;52.098;21.006;2022-07-12T00:34:16;5.10;;;2.20;;
68126;SDS011;54931;52.098;21.006;2022-07-12T00:36:43;7.40;;;2.60;;
68126;SDS011;54931;52.098;21.006;2022-07-12T00:39:11;4.30;;;2.20;;
68126;SDS011;54931;52.098;21.006;2022-07-12T00:41:38;5.70;;;2.40;;
68126;SDS011;54931;52.098;21.006;2022-07-12T00:44:06;7.60;;;2.20;;
68126;SDS011;54931;52.098;21.006;2022-07-12T00:46:33;5.00;;;2.10;;
68126;SDS011;54931;52.098;21.006;2022-07-12T00:49:01;4.30;;;2.50;;
68126;SDS011;54931;52.098;21.006;2022-07-12T00:51:28;5.70;;;2.70;;
68126;SDS011;54931;52.098;21.006;2022-07-12T00:53:57;5.30;;;2.40;;
68126;SDS011;54931;52.098;21.006;2022-07-12T00:56:26;4.60;;;2.80;;
68126;SDS011;54931;52.098;21.006;2022-07-12T00:58:53;3.50;;;2.40;;
68126;SDS011;54931;52.098;21.006;2022-07-12T01:01:21;5.10;;;2.70;;
68126;SDS011;54931;52.098;21.006;2022-07-12T01:03:50;4.60;;;2.70;;
68126;SDS011;54931;52.098;21.006;2022-07-12T01:06:20;3.80;;;2.30;;
68126;SDS011;54931;52.098;21.006;2022-07-12T01:08:48;3.50;;;2.60;;
68126;SDS011;54931;52.098;21.006;2022-07-12T01:11:16;4.70;;;3.00;;
68126;SDS011;54931;52.098;21.006;2022-07-12T01:13:47;4.10;;;2.70;;
68126;SDS011;54931;52.098;21.006;2022-07-12T01:16:17;4.70;;;2.80;;
68126;SDS011;54931;52.098;21.006;2022-07-12T01:18:46;4.00;;;2.50;;
68126;SDS011;54931;52.098;21.006;2022-07-12T01:21:18;5.20;;;2.40;;
68126;SDS011;54931;52.098;21.006;2022-07-12T01:23:49;4.60;;;2.80;;
68126;SDS011;54931;52.098;21.006;2022-07-12T01:26:18;7.30;;;2.90;;
68126;SDS011;54931;52.098;21.006;2022-07-12T01:28:46;3.60;;;2.90;;
68126;SDS011;54931;52.098;21.006;2022-07-12T01:31:15;11.30;;;2.70;;
68126;SDS011;54931;52.098;21.006;2022-07-12T01:33:42;11.10;;;2.90;;
68126;SDS011;54931;52.098;21.006;2022-07-12T01:36:10;5.50;;;2.80;;
68126;SDS011;54931;52.098;21.006;2022-07-12T01:38:37;4.60;;;2.50;;
68126;SDS011;54931;52.098;21.006;2022-07-12T01:41:04;5.30;;;2.50;;
68126;SDS011;54931;52.098;21.006;2022-07-12T01:43:33;4.50;;;2.60;;
68126;SDS011;54931;52.098;21.006;2022-07-12T01:46:00;4.00;;;2.80;;
68126;SDS011;54931;52.098;21.006;2022-07-12T01:48:28;4.90;;;2.40;;
68126;SDS011;54931;52.098;21.006;2022-07-12T01:50:55;3.50;;;2.20;;
68126;SDS011;54931;52.098;21.006;2022-07-12T01:53:23;4.20;;;2.40;;
68126;SDS011;54931;52.098;21.006;2022-07-12T01:55:50;5.90;;;2.60;;
68126;SDS011;54931;52.098;21.006;2022-07-12T01:58:17;9.20;;;2.80;;
68126;SDS011;54931;52.098;21.006;2022-07-12T02:00:45;4.80;;;2.90;;
68126;SDS011;54931;52.098;21.006;2022-07-12T02:03:18;6.40;;;2.60;;
68126;SDS011;54931;52.098;21.006;2022-07-12T02:05:46;6.30;;;2.70;;
68126;SDS011;54931;52.098;21.006;2022-07-12T02:08:14;5.90;;;2.70;;
68126;SDS011;54931;52.098;21.006;2022-07-12T02:10:42;6.60;;;2.70;;
68126;SDS011;54931;52.098;21.006;2022-07-12T02:13:10;6.70;;;3.00;;
68126;SDS011;54931;52.098;21.006;2022-07-12T02:15:37;5.60;;;3.10;;
68126;SDS011;54931;52.098;21.006;2022-07-12T02:18:04;7.00;;;3.10;;
68126;SDS011;54931;52.098;21.006;2022-07-12T02:20:31;5.40;;;2.70;;
68126;SDS011;54931;52.098;21.006;2022-07-12T02:22:58;7.10;;;3.60;;
68126;SDS011;54931;52.098;21.006;2022-07-12T02:25:26;5.60;;;3.90;;
68126;SDS011;54931;52.098;21.006;2022-07-12T02:27:53;9.40;;;3.80;;
68126;SDS011;54931;52.098;21.006;2022-07-12T02:30:20;13.60;;;5.90;;
68126;SDS011;54931;52.098;21.006;2022-07-12T02:32:47;14.70;;;6.50;;
68126;SDS011;54931;52.098;21.006;2022-07-12T02:35:14;19.60;;;7.60;;
68126;SDS011;54931;52.098;21.006;2022-07-12T02:37:41;24.30;;;8.60;;
68126;SDS011;54931;52.098;21.006;2022-07-12T02:40:09;27.40;;;10.20;;
68126;SDS011;54931;52.098;21.006;2022-07-12T02:42:55;32.20;;;11.10;;
68126;SDS011;54931;52.098;21.006;2022-07-12T02:45:22;28.40;;;10.70;;
68126;SDS011;54931;52.098;21.006;2022-07-12T02:47:49;21.40;;;10.10;;
68126;SDS011;54931;52.098;21.006;2022-07-12T02:50:17;22.10;;;9.50;;
68126;SDS011;54931;52.098;21.006;2022-07-12T02:52:44;21.60;;;8.80;;
68126;SDS011;54931;52.098;21.006;2022-07-12T02:55:11;18.10;;;8.90;;
68126;SDS011;54931;52.098;21.006;2022-07-12T02:57:38;16.80;;;8.50;;
68126;SDS011;54931;52.098;21.006;2022-07-12T03:00:06;15.40;;;9.20;;
68126;SDS011;54931;52.098;21.006;2022-07-12T03:02:34;15.90;;;9.30;;
68126;SDS011;54931;52.098;21.006;2022-07-12T03:05:01;20.70;;;10.90;;
68126;SDS011;54931;52.098;21.006;2022-07-12T03:07:29;17.70;;;11.70;;
68126;SDS011;54931;52.098;21.006;2022-07-12T03:09:56;18.50;;;11.10;;
68126;SDS011;54931;52.098;21.006;2022-07-12T03:12:24;14.80;;;9.00;;
68126;SDS011;54931;52.098;21.006;2022-07-12T03:14:51;19.50;;;9.60;;
68126;SDS011;54931;52.098;21.006;2022-07-12T03:17:18;15.40;;;7.70;;
68126;SDS011;54931;52.098;21.006;2022-07-12T03:19:45;13.10;;;7.10;;
68126;SDS011;54931;52.098;21.006;2022-07-12T03:22:12;11.50;;;6.50;;
68126;SDS011;54931;52.098;21.006;2022-07-12T03:24:40;9.30;;;5.20;;
68126;SDS011;54931;52.098;21.006;2022-07-12T03:27:07;9.90;;;4.40;;
68126;SDS011;54931;52.098;21.006;2022-07-12T03:29:34;9.20;;;4.30;;
68126;SDS011;54931;52.098;21.006;2022-07-12T03:32:01;11.20;;;4.30;;
68126;SDS011;54931;52.098;21.006;2022-07-12T03:34:29;6.30;;;3.60;;
68126;SDS011;54931;52.098;21.006;2022-07-12T03:36:56;5.60;;;3.20;;
68126;SDS011;54931;52.098;21.006;2022-07-12T03:39:24;4.70;;;3.20;;
68126;SDS011;54931;52.098;21.006;2022-07-12T03:41:51;5.10;;;3.50;;
68126;SDS011;54931;52.098;21.006;2022-07-12T03:44:19;5.10;;;3.10;;
68126;SDS011;54931;52.098;21.006;2022-07-12T03:46:46;6.20;;;3.40;;
68126;SDS011;54931;52.098;21.006;2022-07-12T03:49:14;5.30;;;2.90;;
68126;SDS011;54931;52.098;21.006;2022-07-12T03:51:42;5.30;;;3.10;;
68126;SDS011;54931;52.098;21.006;2022-07-12T03:54:09;5.20;;;3.20;;
68126;SDS011;54931;52.098;21.006;2022-07-12T03:56:36;6.50;;;3.10;;
68126;SDS011;54931;52.098;21.006;2022-07-12T03:59:22;4.20;;;3.10;;
68126;SDS011;54931;52.098;21.006;2022-07-12T04:01:49;5.60;;;3.60;;
68126;SDS011;54931;52.098;21.006;2022-07-12T04:04:16;6.80;;;3.20;;
68126;SDS011;54931;52.098;21.006;2022-07-12T04:06:44;6.00;;;3.40;;
68126;SDS011;54931;52.098;21.006;2022-07-12T04:09:12;4.50;;;3.80;;
68126;SDS011;54931;52.098;21.006;2022-07-12T04:11:40;5.00;;;3.60;;
68126;SDS011;54931;52.098;21.006;2022-07-12T04:14:07;4.50;;;3.40;;
68126;SDS011;54931;52.098;21.006;2022-07-12T04:16:34;5.40;;;3.40;;
68126;SDS011;54931;52.098;21.006;2022-07-12T04:19:01;4.30;;;3.40;;
68126;SDS011;54931;52.098;21.006;2022-07-12T04:21:31;6.40;;;3.80;;
68126;SDS011;54931;52.098;21.006;2022-07-12T04:23:59;6.20;;;3.50;;
68126;SDS011;54931;52.098;21.006;2022-07-12T04:26:26;4.90;;;3.30;;
68126;SDS011;54931;52.098;21.006;2022-07-12T04:28:53;5.00;;;3.90;;
68126;SDS011;54931;52.098;21.006;2022-07-12T04:31:20;7.10;;;4.00;;
68126;SDS011;54931;52.098;21.006;2022-07-12T04:33:47;6.90;;;3.70;;
68126;SDS011;54931;52.098;21.006;2022-07-12T04:36:14;8.00;;;4.00;;
68126;SDS011;54931;52.098;21.006;2022-07-12T04:38:42;6.80;;;3.40;;
68126;SDS011;54931;52.098;21.006;2022-07-12T04:41:09;6.40;;;3.70;;
68126;SDS011;54931;52.098;21.006;2022-07-12T04:43:36;9.40;;;3.80;;
68126;SDS011;54931;52.098;21.006;2022-07-12T04:46:10;6.60;;;3.80;;
68126;SDS011;54931;52.098;21.006;2022-07-12T04:48:37;6.70;;;3.80;;
68126;SDS011;54931;52.098;21.006;2022-07-12T04:51:05;6.50;;;3.80;;
68126;SDS011;54931;52.098;21.006;2022-07-12T04:53:32;7.40;;;4.10;;
68126;SDS011;54931;52.098;21.006;2022-07-12T04:55:59;7.90;;;4.00;;
68126;SDS011;54931;52.098;21.006;2022-07-12T04:58:26;4.80;;;4.00;;
68126;SDS011;54931;52.098;21.006;2022-07-12T05:00:53;6.40;;;3.90;;
68126;SDS011;54931;52.098;21.006;2022-07-12T05:03:21;7.10;;;4.00;;
68126;SDS011;54931;52.098;21.006;2022-07-12T05:05:48;6.60;;;4.30;;
68126;SDS011;54931;52.098;21.006;2022-07-12T05:08:16;10.40;;;3.90;;
68126;SDS011;54931;52.098;21.006;2022-07-12T05:10:43;10.20;;;4.10;;
68126;SDS011;54931;52.098;21.006;2022-07-12T05:13:10;7.60;;;3.90;;
68126;SDS011;54931;52.098;21.006;2022-07-12T05:15:37;7.00;;;3.70;;
68126;SDS011;54931;52.098;21.006;2022-07-12T05:18:04;9.40;;;3.90;;
68126;SDS011;54931;52.098;21.006;2022-07-12T05:20:31;7.50;;;3.90;;
68126;SDS011;54931;52.098;21.006;2022-07-12T05:23:00;6.50;;;4.00;;
68126;SDS011;54931;52.098;21.006;2022-07-12T05:25:27;8.30;;;3.70;;
68126;SDS011;54931;52.098;21.006;2022-07-12T05:27:54;5.50;;;3.80;;
68126;SDS011;54931;52.098;21.006;2022-07-12T05:30:21;8.50;;;3.80;;
68126;SDS011;54931;52.098;21.006;2022-07-12T05:32:49;5.20;;;4.00;;
68126;SDS011;54931;52.098;21.006;2022-07-12T05:35:16;6.30;;;3.70;;
68126;SDS011;54931;52.098;21.006;2022-07-12T05:37:44;6.80;;;4.00;;
68126;SDS011;54931;52.098;21.006;2022-07-12T05:40:11;7.10;;;3.70;;
68126;SDS011;54931;52.098;21.006;2022-07-12T05:42:38;7.50;;;3.90;;
68126;SDS011;54931;52.098;21.006;2022-07-12T05:45:06;6.50;;;3.70;;
68126;SDS011;54931;52.098;21.006;2022-07-12T05:47:33;7.00;;;3.60;;
68126;SDS011;54931;52.098;21.006;2022-07-12T05:50:01;8.20;;;4.50;;
68126;SDS011;54931;52.098;21.006;2022-07-12T05:52:28;4.40;;;3.50;;
68126;SDS011;54931;52.098;21.006;2022-07-12T05:55:14;5.10;;;3.50;;
68126;SDS011;54931;52.098;21.006;2022-07-12T05:57:41;5.60;;;3.70;;
68126;SDS011;54931;52.098;21.006;2022-07-12T06:00:09;9.10;;;3.30;;
68126;SDS011;54931;52.098;21.006;2022-07-12T06:02:37;5.70;;;3.00;;
68126;SDS011;54931;52.098;21.006;2022-07-12T06:05:05;7.20;;;3.40;;
68126;SDS011;54931;52.098;21.006;2022-07-12T06:07:33;5.40;;;4.00;;
68126;SDS011;54931;52.098;21.006;2022-07-12T06:10:00;4.00;;;3.20;;
68126;SDS011;54931;52.098;21.006;2022-07-12T06:12:27;5.70;;;2.80;;
68126;SDS011;54931;52.098;21.006;2022-07-12T06:14:54;7.40;;;2.80;;
68126;SDS011;54931;52.098;21.006;2022-07-12T06:17:21;5.50;;;3.10;;
68126;SDS011;54931;52.098;21.006;2022-07-12T06:19:50;4.70;;;2.80;;
68126;SDS011;54931;52.098;21.006;2022-07-12T06:22:18;5.00;;;2.70;;
68126;SDS011;54931;52.098;21.006;2022-07-12T06:24:45;5.30;;;2.90;;
68126;SDS011;54931;52.098;21.006;2022-07-12T06:27:12;3.90;;;2.90;;
68126;SDS011;54931;52.098;21.006;2022-07-12T06:29:40;4.20;;;2.40;;
68126;SDS011;54931;52.098;21.006;2022-07-12T06:32:07;4.20;;;2.30;;
68126;SDS011;54931;52.098;21.006;2022-07-12T06:34:36;3.00;;;2.20;;
68126;SDS011;54931;52.098;21.006;2022-07-12T06:37:04;4.80;;;2.20;;
68126;SDS011;54931;52.098;21.006;2022-07-12T06:39:35;5.60;;;2.10;;
68126;SDS011;54931;52.098;21.006;2022-07-12T06:42:03;4.40;;;2.20;;
68126;SDS011;54931;52.098;21.006;2022-07-12T06:44:32;3.50;;;2.20;;
68126;SDS011;54931;52.098;21.006;2022-07-12T06:47:00;6.20;;;1.90;;
68126;SDS011;54931;52.098;21.006;2022-07-12T06:49:28;2.70;;;1.90;;
68126;SDS011;54931;52.098;21.006;2022-07-12T06:51:55;2.90;;;2.20;;
68126;SDS011;54931;52.098;21.006;2022-07-12T06:54:25;3.60;;;2.50;;
68126;SDS011;54931;52.098;21.006;2022-07-12T06:56:54;7.40;;;2.20;;
68126;SDS011;54931;52.098;21.006;2022-07-12T06:59:22;3.70;;;2.10;;
68126;SDS011;54931;52.098;21.006;2022-07-12T07:01:49;6.20;;;2.30;;
68126;SDS011;54931;52.098;21.006;2022-07-12T07:04:16;5.20;;;2.00;;
68126;SDS011;54931;52.098;21.006;2022-07-12T07:06:43;4.10;;;2.00;;
68126;SDS011;54931;52.098;21.006;2022-07-12T07:09:10;5.50;;;2.10;;
68126;SDS011;54931;52.098;21.006;2022-07-12T07:11:38;3.20;;;1.70;;
68126;SDS011;54931;52.098;21.006;2022-07-12T07:14:05;3.50;;;2.20;;
68126;SDS011;54931;52.098;21.006;2022-07-12T07:16:32;2.70;;;1.90;;
68126;SDS011;54931;52.098;21.006;2022-07-12T07:19:00;5.50;;;1.90;;
68126;SDS011;54931;52.098;21.006;2022-07-12T07:21:27;3.30;;;1.90;;
68126;SDS011;54931;52.098;21.006;2022-07-12T07:23:55;4.40;;;1.80;;
68126;SDS011;54931;52.098;21.006;2022-07-12T07:26:22;3.30;;;1.70;;
68126;SDS011;54931;52.098;21.006;2022-07-12T07:28:50;2.50;;;1.70;;
68126;SDS011;54931;52.098;21.006;2022-07-12T07:31:36;3.50;;;1.70;;
68126;SDS011;54931;52.098;21.006;2022-07-12T07:34:04;2.80;;;1.50;;
68126;SDS011;54931;52.098;21.006;2022-07-12T07:36:32;3.60;;;1.80;;
68126;SDS011;54931;52.098;21.006;2022-07-12T07:38:59;3.70;;;1.70;;
68126;SDS011;54931;52.098;21.006;2022-07-12T07:41:27;2.50;;;1.40;;
68126;SDS011;54931;52.098;21.006;2022-07-12T07:43:54;3.90;;;1.60;;
68126;SDS011;54931;52.098;21.006;2022-07-12T07:46:21;2.50;;;1.70;;
68126;SDS011;54931;52.098;21.006;2022-07-12T07:48:49;2.20;;;1.30;;
68126;SDS011;54931;52.098;21.006;2022-07-12T07:51:16;4.20;;;1.70;;
68126;SDS011;54931;52.098;21.006;2022-07-12T07:53:43;3.40;;;1.60;;
68126;SDS011;54931;52.098;21.006;2022-07-12T07:56:10;3.00;;;1.50;;
68126;SDS011;54931;52.098;21.006;2022-07-12T07:58:37;2.50;;;1.60;;
68126;SDS011;54931;52.098;21.006;2022-07-12T08:01:05;3.00;;;1.60;;
68126;SDS011;54931;52.098;21.006;2022-07-12T08:03:32;2.20;;;1.50;;
68126;SDS011;54931;52.098;21.006;2022-07-12T08:06:00;3.10;;;1.90;;
68126;SDS011;54931;52.098;21.006;2022-07-12T08:08:27;2.10;;;1.60;;
68126;SDS011;54931;52.098;21.006;2022-07-12T08:10:55;2.50;;;1.60;;
68126;SDS011;54931;52.098;21.006;2022-07-12T08:13:23;2.80;;;1.70;;
68126;SDS011;54931;52.098;21.006;2022-07-12T08:15:50;4.60;;;1.60;;
68126;SDS011;54931;52.098;21.006;2022-07-12T08:18:18;5.20;;;1.60;;
68126;SDS011;54931;52.098;21.006;2022-07-12T08:20:45;2.20;;;1.50;;
68126;SDS011;54931;52.098;21.006;2022-07-12T08:23:13;2.70;;;1.50;;
68126;SDS011;54931;52.098;21.006;2022-07-12T08:25:40;4.40;;;1.50;;
68126;SDS011;54931;52.098;21.006;2022-07-12T08:28:08;3.00;;;1.30;;
68126;SDS011;54931;52.098;21.006;2022-07-12T08:30:35;3.20;;;1.40;;
68126;SDS011;54931;52.098;21.006;2022-07-12T08:33:03;2.50;;;1.50;;
68126;SDS011;54931;52.098;21.006;2022-07-12T08:35:30;2.40;;;1.50;;
68126;SDS011;54931;52.098;21.006;2022-07-12T08:37:57;3.30;;;1.60;;
68126;SDS011;54931;52.098;21.006;2022-07-12T08:40:24;3.00;;;1.40;;
68126;SDS011;54931;52.098;21.006;2022-07-12T08:42:51;3.90;;;1.70;;
68126;SDS011;54931;52.098;21.006;2022-07-12T08:45:19;2.80;;;1.50;;
68126;SDS011;54931;52.098;21.006;2022-07-12T08:47:46;2.00;;;1.60;;
68126;SDS011;54931;52.098;21.006;2022-07-12T08:50:15;2.10;;;1.50;;
68126;SDS011;54931;52.098;21.006;2022-07-12T08:52:49;5.50;;;1.90;;
68126;SDS011;54931;52.098;21.006;2022-07-12T08:55:29;3.50;;;1.60;;
68126;SDS011;54931;52.098;21.006;2022-07-12T08:58:00;3.70;;;1.50;;
68126;SDS011;54931;52.098;21.006;2022-07-12T09:00:40;4.20;;;1.90;;
68126;SDS011;54931;52.098;21.006;2022-07-12T09:03:08;5.10;;;2.10;;
68126;SDS011;54931;52.098;21.006;2022-07-12T09:05:36;3.20;;;1.70;;
68126;SDS011;54931;52.098;21.006;2022-07-12T09:08:09;4.20;;;1.80;;
68126;SDS011;54931;52.098;21.006;2022-07-12T09:13:17;3.80;;;1.70;;
68126;SDS011;54931;52.098;21.006;2022-07-12T09:15:45;4.00;;;1.70;;
68126;SDS011;54931;52.098;21.006;2022-07-12T09:18:15;5.00;;;1.80;;
68126;SDS011;54931;52.098;21.006;2022-07-12T09:20:51;2.90;;;1.90;;
68126;SDS011;54931;52.098;21.006;2022-07-12T09:23:19;4.80;;;1.80;;
68126;SDS011;54931;52.098;21.006;2022-07-12T09:25:47;3.50;;;1.70;;
68126;SDS011;54931;52.098;21.006;2022-07-12T09:28:18;5.00;;;1.70;;
68126;SDS011;54931;52.098;21.006;2022-07-12T09:30:50;1.90;;;1.60;;
68126;SDS011;54931;52.098;21.006;2022-07-12T09:33:20;3.30;;;1.80;;
68126;SDS011;54931;52.098;21.006;2022-07-12T09:36:07;4.70;;;1.80;;
68126;SDS011;54931;52.098;21.006;2022-07-12T09:41:23;3.80;;;1.70;;
68126;SDS011;54931;52.098;21.006;2022-07-12T09:43:50;3.70;;;1.80;;
68126;SDS011;54931;52.098;21.006;2022-07-12T09:46:19;3.50;;;1.50;;
68126;SDS011;54931;52.098;21.006;2022-07-12T09:48:46;3.40;;;2.10;;
68126;SDS011;54931;52.098;21.006;2022-07-12T09:51:16;5.80;;;2.00;;
68126;SDS011;54931;52.098;21.006;2022-07-12T09:53:46;3.50;;;1.90;;
68126;SDS011;54931;52.098;21.006;2022-07-12T09:56:16;2.60;;;1.80;;
68126;SDS011;54931;52.098;21.006;2022-07-12T09:58:53;2.80;;;1.90;;
68126;SDS011;54931;52.098;21.006;2022-07-12T10:01:24;4.60;;;1.90;;
68126;SDS011;54931;52.098;21.006;2022-07-12T10:03:52;5.10;;;1.80;;
68126;SDS011;54931;52.098;21.006;2022-07-12T10:06:27;2.30;;;1.60;;
68126;SDS011;54931;52.098;21.006;2022-07-12T10:08:56;2.70;;;2.00;;
68126;SDS011;54931;52.098;21.006;2022-07-12T10:11:24;2.90;;;1.80;;
68126;SDS011;54931;52.098;21.006;2022-07-12T10:13:52;2.10;;;1.70;;
68126;SDS011;54931;52.098;21.006;2022-07-12T10:16:27;3.10;;;1.70;;
68126;SDS011;54931;52.098;21.006;2022-07-12T10:19:36;3.00;;;2.00;;
68126;SDS011;54931;52.098;21.006;2022-07-12T10:22:06;10.20;;;1.80;;
68126;SDS011;54931;52.098;21.006;2022-07-12T10:24:47;4.90;;;1.70;;
68126;SDS011;54931;52.098;21.006;2022-07-12T10:29:47;4.90;;;1.80;;
68126;SDS011;54931;52.098;21.006;2022-07-12T10:32:25;6.50;;;1.70;;
68126;SDS011;54931;52.098;21.006;2022-07-12T10:35:13;5.80;;;1.90;;
68126;SDS011;54931;52.098;21.006;2022-07-12T10:40:43;3.00;;;1.60;;
68126;SDS011;54931;52.098;21.006;2022-07-12T10:43:15;3.20;;;1.90;;
68126;SDS011;54931;52.098;21.006;2022-07-12T10:45:45;3.80;;;1.50;;
68126;SDS011;54931;52.098;21.006;2022-07-12T10:53:25;6.90;;;1.70;;
68126;SDS011;54931;52.098;21.006;2022-07-12T10:58:33;2.70;;;1.40;;
68126;SDS011;54931;52.098;21.006;2022-07-12T11:01:12;2.90;;;1.40;;
68126;SDS011;54931;52.098;21.006;2022-07-12T11:06:19;2.40;;;1.40;;
68126;SDS011;54931;52.098;21.006;2022-07-12T11:08:56;5.20;;;1.50;;
68126;SDS011;54931;52.098;21.006;2022-07-12T11:11:42;2.50;;;1.30;;
68126;SDS011;54931;52.098;21.006;2022-07-12T11:14:13;1.90;;;1.30;;
68126;SDS011;54931;52.098;21.006;2022-07-12T11:16:54;2.40;;;1.50;;
68126;SDS011;54931;52.098;21.006;2022-07-12T11:19:31;1.70;;;1.30;;
68126;SDS011;54931;52.098;21.006;2022-07-12T11:21:58;2.70;;;1.50;;
68126;SDS011;54931;52.098;21.006;2022-07-12T11:24:28;3.50;;;1.30;;
68126;SDS011;54931;52.098;21.006;2022-07-12T11:26:59;2.30;;;1.40;;
68126;SDS011;54931;52.098;21.006;2022-07-12T11:29:27;2.00;;;1.30;;
68126;SDS011;54931;52.098;21.006;2022-07-12T11:32:03;2.80;;;1.60;;
68126;SDS011;54931;52.098;21.006;2022-07-12T11:34:34;7.10;;;1.50;;
68126;SDS011;54931;52.098;21.006;2022-07-12T11:37:02;3.20;;;1.40;;
68126;SDS011;54931;52.098;21.006;2022-07-12T11:39:39;3.30;;;1.50;;
68126;SDS011;54931;52.098;21.006;2022-07-12T11:42:08;7.30;;;1.40;;
68126;SDS011;54931;52.098;21.006;2022-07-12T11:44:47;4.00;;;1.40;;
68126;SDS011;54931;52.098;21.006;2022-07-12T11:47:20;2.60;;;1.50;;
68126;SDS011;54931;52.098;21.006;2022-07-12T11:49:54;5.10;;;1.30;;
68126;SDS011;54931;52.098;21.006;2022-07-12T11:52:24;2.80;;;1.20;;
68126;SDS011;54931;52.098;21.006;2022-07-12T11:54:53;2.40;;;1.30;;
68126;SDS011;54931;52.098;21.006;2022-07-12T11:57:22;1.40;;;1.10;;
68126;SDS011;54931;52.098;21.006;2022-07-12T11:59:50;2.00;;;1.30;;
68126;SDS011;54931;52.098;21.006;2022-07-12T12:02:17;2.30;;;1.20;;
68126;SDS011;54931;52.098;21.006;2022-07-12T12:04:50;2.60;;;1.40;;
68126;SDS011;54931;52.098;21.006;2022-07-12T12:07:22;2.90;;;1.20;;
68126;SDS011;54931;52.098;21.006;2022-07-12T12:10:22;3.00;;;1.30;;
68126;SDS011;54931;52.098;21.006;2022-07-12T12:12:52;4.60;;;1.40;;
68126;SDS011;54931;52.098;21.006;2022-07-12T12:15:23;2.30;;;1.20;;
68126;SDS011;54931;52.098;21.006;2022-07-12T12:20:19;3.60;;;1.30;;
68126;SDS011;54931;52.098;21.006;2022-07-12T12:22:50;4.30;;;1.60;;
68126;SDS011;54931;52.098;21.006;2022-07-12T12:25:21;6.00;;;1.30;;
68126;SDS011;54931;52.098;21.006;2022-07-12T12:27:54;4.60;;;1.10;;
68126;SDS011;54931;52.098;21.006;2022-07-12T12:30:24;3.80;;;1.40;;
68126;SDS011;54931;52.098;21.006;2022-07-12T12:32:59;2.60;;;1.10;;
68126;SDS011;54931;52.098;21.006;2022-07-12T12:38:11;1.90;;;1.40;;
68126;SDS011;54931;52.098;21.006;2022-07-12T12:40:49;4.60;;;1.20;;
68126;SDS011;54931;52.098;21.006;2022-07-12T12:43:19;2.90;;;1.20;;
68126;SDS011;54931;52.098;21.006;2022-07-12T12:45:51;3.00;;;1.30;;
68126;SDS011;54931;52.098;21.006;2022-07-12T12:48:22;1.80;;;1.20;;
68126;SDS011;54931;52.098;21.006;2022-07-12T12:50:54;1.90;;;1.10;;
68126;SDS011;54931;52.098;21.006;2022-07-12T12:53:37;1.60;;;1.30;;
68126;SDS011;54931;52.098;21.006;2022-07-12T12:56:11;3.70;;;1.10;;
68126;SDS011;54931;52.098;21.006;2022-07-12T12:58:40;3.20;;;1.10;;
68126;SDS011;54931;52.098;21.006;2022-07-12T13:01:08;4.20;;;1.30;;
68126;SDS011;54931;52.098;21.006;2022-07-12T13:03:36;2.80;;;1.30;;
68126;SDS011;54931;52.098;21.006;2022-07-12T13:06:04;1.70;;;1.20;;
68126;SDS011;54931;52.098;21.006;2022-07-12T13:08:32;3.80;;;1.20;;
68126;SDS011;54931;52.098;21.006;2022-07-12T13:10:59;3.00;;;1.20;;
68126;SDS011;54931;52.098;21.006;2022-07-12T13:13:45;2.60;;;1.20;;
68126;SDS011;54931;52.098;21.006;2022-07-12T13:16:12;3.10;;;1.40;;
68126;SDS011;54931;52.098;21.006;2022-07-12T13:18:40;4.10;;;1.30;;
68126;SDS011;54931;52.098;21.006;2022-07-12T13:21:07;1.40;;;1.20;;
68126;SDS011;54931;52.098;21.006;2022-07-12T13:23:34;1.90;;;1.10;;
68126;SDS011;54931;52.098;21.006;2022-07-12T13:26:02;5.30;;;1.50;;
68126;SDS011;54931;52.098;21.006;2022-07-12T13:28:29;2.40;;;1.30;;
68126;SDS011;54931;52.098;21.006;2022-07-12T13:30:58;6.10;;;1.50;;
68126;SDS011;54931;52.098;21.006;2022-07-12T13:33:25;1.70;;;1.10;;
68126;SDS011;54931;52.098;21.006;2022-07-12T13:35:53;8.60;;;1.40;;
68126;SDS011;54931;52.098;21.006;2022-07-12T13:38:20;3.50;;;1.30;;
68126;SDS011;54931;52.098;21.006;2022-07-12T13:40:48;2.30;;;1.20;;
68126;SDS011;54931;52.098;21.006;2022-07-12T13:43:15;3.40;;;1.30;;
68126;SDS011;54931;52.098;21.006;2022-07-12T13:45:43;3.90;;;1.40;;
68126;SDS011;54931;52.098;21.006;2022-07-12T13:48:11;4.80;;;1.50;;
68126;SDS011;54931;52.098;21.006;2022-07-12T13:50:38;2.60;;;1.20;;
68126;SDS011;54931;52.098;21.006;2022-07-12T13:53:06;2.30;;;1.30;;
68126;SDS011;54931;52.098;21.006;2022-07-12T13:55:34;6.30;;;1.60;;
68126;SDS011;54931;52.098;21.006;2022-07-12T13:58:07;2.60;;;1.10;;
68126;SDS011;54931;52.098;21.006;2022-07-12T14:00:34;2.10;;;1.20;;
68126;SDS011;54931;52.098;21.006;2022-07-12T14:03:06;2.00;;;1.20;;
68126;SDS011;54931;52.098;21.006;2022-07-12T14:05:35;6.50;;;1.30;;
68126;SDS011;54931;52.098;21.006;2022-07-12T14:08:04;4.80;;;1.20;;
68126;SDS011;54931;52.098;21.006;2022-07-12T14:10:31;1.60;;;1.20;;
68126;SDS011;54931;52.098;21.006;2022-07-12T14:13:00;4.90;;;1.20;;
68126;SDS011;54931;52.098;21.006;2022-07-12T14:15:27;3.10;;;1.20;;
68126;SDS011;54931;52.098;21.006;2022-07-12T14:18:05;3.10;;;1.20;;
68126;SDS011;54931;52.098;21.006;2022-07-12T14:20:35;3.30;;;1.50;;
68126;SDS011;54931;52.098;21.006;2022-07-12T14:23:03;3.90;;;1.40;;
68126;SDS011;54931;52.098;21.006;2022-07-12T14:25:33;5.10;;;1.40;;
68126;SDS011;54931;52.098;21.006;2022-07-12T14:28:00;4.80;;;1.30;;
68126;SDS011;54931;52.098;21.006;2022-07-12T14:30:28;3.60;;;1.20;;
68126;SDS011;54931;52.098;21.006;2022-07-12T14:32:55;5.00;;;1.50;;
68126;SDS011;54931;52.098;21.006;2022-07-12T14:35:22;4.60;;;1.50;;
68126;SDS011;54931;52.098;21.006;2022-07-12T14:37:52;4.50;;;1.30;;
68126;SDS011;54931;52.098;21.006;2022-07-12T14:40:20;9.10;;;1.50;;
68126;SDS011;54931;52.098;21.006;2022-07-12T14:42:48;7.60;;;2.30;;
68126;SDS011;54931;52.098;21.006;2022-07-12T14:45:16;3.10;;;1.50;;
68126;SDS011;54931;52.098;21.006;2022-07-12T14:47:43;5.80;;;1.50;;
68126;SDS011;54931;52.098;21.006;2022-07-12T14:50:11;9.60;;;1.60;;
68126;SDS011;54931;52.098;21.006;2022-07-12T14:52:39;2.00;;;1.50;;
68126;SDS011;54931;52.098;21.006;2022-07-12T14:55:07;3.10;;;1.60;;
68126;SDS011;54931;52.098;21.006;2022-07-12T14:57:35;2.20;;;1.40;;
68126;SDS011;54931;52.098;21.006;2022-07-12T15:00:03;2.30;;;1.40;;
68126;SDS011;54931;52.098;21.006;2022-07-12T15:02:32;4.10;;;1.50;;
68126;SDS011;54931;52.098;21.006;2022-07-12T15:05:00;4.20;;;1.30;;
68126;SDS011;54931;52.098;21.006;2022-07-12T15:07:31;3.20;;;1.10;;
68126;SDS011;54931;52.098;21.006;2022-07-12T15:09:59;4.70;;;1.40;;
68126;SDS011;54931;52.098;21.006;2022-07-12T15:12:26;2.90;;;1.30;;